Latest Weather Observations for Port Augusta

IDS60801

Issued at 4:05 pm CST Wednesday 23 April 2014 (issued every 30 minutes, with the page automatically refreshed every 10 minutes)

About weather observations | Map of weather stations | Latest weather observations for SA | Other Formats
Station Details ID: 018201 Name: PORT AUGUSTA AERO Lat: -32.51 Lon: 137.72 Height: 13.97 m
Data from the previous 72 hours. | See also: Recent months at Port Augusta
Date/Time
CST
Temp
°C
App
Temp
°C
Dew
Point
Rel
Hum
%
Delta-T
°C
Wind Press
QNH
hPa
Press
MSL
hPa
Rain
since 9 am
mm
Dir
 
Spd
km/h
Gust
km/h
Spd
kts
Gust
kts
23/04:00pm 21.4 17.2 9.6 47 6.3 SE 22 28 12 15 1014.5 - 0.0
23/03:30pm 21.4 17.4 9.0 45 6.6 SE 20 28 11 15 1014.5 - 0.0
23/03:00pm 21.4 17.5 9.3 46 6.5 SE 20 28 11 15 1014.3 1014.3 0.0
23/02:30pm 21.4 16.8 9.6 47 6.3 SE 24 32 13 17 1014.5 - 0.0
23/02:00pm 21.6 17.0 9.8 47 6.4 SE 24 32 13 17 1014.6 - 0.0
23/01:30pm 21.1 16.5 9.7 48 6.1 SE 24 30 13 16 1014.7 - 0.0
23/01:00pm 21.1 17.1 10.6 51 5.7 SE 22 30 12 16 1015.2 - 0.0
23/12:30pm 21.4 18.3 10.3 49 6.0 ESE 17 24 9 13 1015.9 - 0.0
23/12:00pm 21.2 18.4 10.1 49 6.0 ESE 15 20 8 11 1016.3 1016.3 0.0
23/11:30am 21.2 19.0 10.7 51 5.7 ESE 13 19 7 10 1016.7 - 0.0
23/11:00am 20.0 17.8 9.3 50 5.7 SE 11 17 6 9 1017.1 - 0.0
23/10:30am 19.3 16.3 9.2 52 5.3 SSE 15 19 8 10 1017.2 - 0.0
23/10:00am 19.0 16.2 10.0 56 4.8 SE 15 20 8 11 1017.5 - 0.0
23/09:30am 18.4 14.8 10.0 58 4.5 SE 19 26 10 14 1017.6 - 0.0
23/09:00am 17.2 13.6 9.9 62 3.8 SE 19 24 10 13 1017.5 1017.5 0.0
23/08:30am 16.9 13.7 10.1 64 3.6 SSE 17 22 9 12 1017.6 - 0.0
23/08:00am 15.7 13.9 10.9 73 2.6 S 11 17 6 9 1017.2 - 0.0
23/07:30am 12.7 11.1 10.2 85 1.3 SSW 9 11 5 6 1016.9 - 0.0
23/07:00am 11.4 9.2 9.3 87 1.1 SSW 11 13 6 7 1016.7 - 0.0
23/06:30am 12.2 10.8 9.6 84 1.3 SSE 7 11 4 6 1016.6 - 0.0
23/06:00am 11.5 10.5 8.7 83 1.4 S 4 6 2 3 1016.6 1016.6 0.0
23/05:30am 13.0 11.7 9.8 81 1.6 S 7 9 4 5 1016.7 - 0.0
23/05:00am 12.7 11.3 9.5 81 1.6 S 7 11 4 6 1016.5 - 0.0
23/04:30am 13.4 11.3 9.8 79 1.8 SSE 11 15 6 8 1016.4 - 0.0
23/04:00am 13.8 11.4 10.0 78 2.0 SSE 13 17 7 9 1016.6 - 0.0
23/03:30am 13.4 11.3 9.8 79 1.8 S 11 15 6 8 1016.8 - 0.0
23/03:00am 13.7 11.2 9.7 77 2.1 S 13 17 7 9 1016.9 1016.9 0.0
23/02:30am 14.6 11.5 10.4 76 2.2 S 17 20 9 11 1017.1 - 0.0
23/02:00am 15.0 11.6 10.6 75 2.3 S 19 22 10 12 1017.3 - 0.0
23/01:30am 15.5 11.8 10.3 71 2.7 S 20 26 11 14 1017.5 - 0.0
23/01:00am 15.5 11.7 9.2 66 3.2 S 19 26 10 14 1017.9 - 0.0
23/12:30am 15.9 11.9 9.1 64 3.5 SSE 20 26 11 14 1017.7 - 0.0
23/12:00am 16.0 12.2 9.2 64 3.5 S 19 24 10 13 1017.8 1017.8 0.0
 
Date/Time
CST
Temp
°C
App
Temp
°C
Dew
Point
Rel
Hum
%
Delta-T
°C
Wind Press
QNH
hPa
Press
MSL
hPa
Rain
since 9 am
mm
Dir
 
Spd
km/h
Gust
km/h
Spd
kts
Gust
kts
22/11:30pm 16.4 11.7 9.1 62 3.8 S 24 30 13 16 1017.8 - 0.0
22/11:00pm 16.3 11.7 9.5 64 3.5 S 24 33 13 18 1018.0 - 0.0
22/10:30pm 16.2 12.9 10.9 71 2.8 S 19 24 10 13 1018.0 - 0.0
22/10:00pm 16.4 13.0 11.3 72 2.7 S 20 26 11 14 1017.9 - 0.0
22/09:30pm 17.1 12.9 11.2 68 3.2 S 24 32 13 17 1018.0 - 0.0
22/09:00pm 17.3 12.4 11.3 68 3.2 S 28 39 15 21 1018.0 1018.0 0.0
22/08:30pm 16.8 13.7 11.5 71 2.9 S 19 24 10 13 1018.1 - 0.0
22/08:00pm 16.8 13.1 11.5 71 2.9 S 22 28 12 15 1017.9 - 0.0
22/07:30pm 16.9 13.7 11.4 70 3.0 S 19 24 10 13 1017.6 - 0.0
22/07:00pm 17.1 13.4 10.2 64 3.7 S 20 28 11 15 1017.3 - 0.0
22/06:30pm 17.8 16.4 10.9 64 3.7 SSE 9 17 5 9 1017.0 - 0.0
22/06:00pm 18.5 14.6 10.8 61 4.2 S 22 32 12 17 1016.6 1016.6 0.0
22/05:30pm 19.4 15.8 10.7 57 4.7 SSE 20 26 11 14 1016.2 - 0.0
22/05:00pm 20.5 15.5 9.7 50 5.8 S 26 37 14 20 1015.9 - 0.0
22/04:30pm 20.6 15.5 10.7 53 5.4 S 28 37 15 20 1015.9 - 0.0
22/04:00pm 21.2 15.7 11.8 55 5.2 S 32 39 17 21 1015.8 - 0.0
22/03:30pm 21.3 16.4 12.4 57 5.0 SSE 30 39 16 21 1015.7 - 0.0
22/03:00pm 21.9 17.0 12.7 56 5.2 SSE 30 39 16 21 1015.6 1015.6 0.0
22/02:30pm 22.1 17.8 13.2 57 5.1 SSE 28 37 15 20 1015.6 - 0.0
22/02:00pm 22.5 18.1 13.0 55 5.5 S 28 35 15 19 1015.7 - 0.0
22/01:30pm 21.8 17.0 12.9 57 5.1 SSE 30 37 16 20 1015.7 - 0.0
22/01:00pm 21.9 17.3 13.5 59 4.8 SSE 30 35 16 19 1016.1 - 0.0
22/12:30pm 21.6 16.9 13.2 59 4.8 S 30 41 16 22 1016.5 - 0.0
22/12:00pm 21.1 16.0 13.8 63 4.2 SSE 33 41 18 22 1016.7 1016.7 0.0
22/11:30am 20.9 15.6 14.3 66 3.8 SSE 35 43 19 23 1016.7 - 0.0
22/11:00am 20.5 16.3 15.7 74 2.9 SE 32 43 17 23 1016.7 - 0.0
22/10:30am 20.3 15.4 15.3 73 3.0 SE 35 43 19 23 1016.8 - 0.0
22/10:00am 21.2 17.8 15.7 71 3.3 SE 28 35 15 19 1016.7 - 0.0
22/09:30am 20.3 18.1 15.9 76 2.6 SE 22 28 12 15 1016.8 - 0.0
22/09:00am 19.8 17.6 15.9 78 2.3 SE 22 30 12 16 1016.7 1016.7 0.0
22/08:30am 19.4 15.9 15.5 78 2.3 SSE 28 35 15 19 1016.5 - 0.0
22/08:00am 19.2 16.3 16.1 82 1.8 SSE 26 35 14 19 1016.3 - 0.0
22/07:30am 18.2 19.1 16.5 90 1.0 SSW 7 20 4 11 1015.9 - 0.0
22/07:00am 15.7 14.6 13.2 85 1.4 S 11 17 6 9 1015.7 - 0.0
22/06:30am 15.2 12.8 10.0 71 2.7 ESE 13 17 7 9 1015.4 - 0.0
22/06:00am 14.4 12.9 9.0 70 2.7 WSW 7 9 4 5 1015.1 1015.1 0.0
22/05:30am 13.0 11.6 9.4 79 1.8 W 7 15 4 8 1014.7 - 0.0
22/05:00am 13.0 11.4 8.7 75 2.2 N 7 9 4 5 1014.3 - 0.0
22/04:30am 13.7 12.3 9.0 73 2.4 WSW 6 7 3 4 1014.3 - 0.0
22/04:00am 14.2 11.1 8.8 70 2.7 W 15 15 8 8 1013.8 - 0.0
22/03:30am 15.6 11.7 8.8 64 3.5 WSW 19 20 10 11 1013.5 - 0.0
22/03:00am 14.8 12.3 8.1 64 3.4 WNW 11 13 6 7 1013.1 1013.1 0.0
22/02:30am 17.3 14.1 8.4 56 4.6 NNW 15 17 8 9 1013.0 - 0.0
22/02:00am 17.4 14.5 8.3 55 4.7 NW 13 20 7 11 1013.1 - 0.0
22/01:30am 19.4 16.1 8.1 48 5.8 NW 15 20 8 11 1013.3 - 0.0
22/01:00am 18.9 16.0 8.3 50 5.5 NW 13 17 7 9 1013.1 - 0.0
22/12:30am 19.3 15.7 8.3 49 5.7 NNW 17 26 9 14 1013.1 - 0.0
22/12:00am 19.6 17.1 8.3 48 5.9 NW 11 15 6 8 1013.1 1013.1 0.0
 
Date/Time
CST
Temp
°C
App
Temp
°C
Dew
Point
Rel
Hum
%
Delta-T
°C
Wind Press
QNH
hPa
Press
MSL
hPa
Rain
since 9 am
mm
Dir
 
Spd
km/h
Gust
km/h
Spd
kts
Gust
kts
21/11:30pm 19.5 17.1 8.5 49 5.7 WNW 11 15 6 8 1013.1 - 0.0
21/11:00pm 19.6 16.7 8.3 48 5.9 N 13 17 7 9 1013.2 - 0.0
21/10:30pm 19.8 16.3 8.8 49 5.8 N 17 20 9 11 1013.5 - 0.0
21/10:00pm 20.9 16.6 7.9 43 6.7 N 20 24 11 13 1013.4 - 0.0
21/09:30pm 20.1 16.8 8.1 46 6.2 N 15 19 8 10 1013.6 - 0.0
21/09:00pm 20.8 17.1 8.1 44 6.6 N 17 20 9 11 1013.5 1013.5 0.0
21/08:30pm 21.3 17.3 8.2 43 6.9 N 19 22 10 12 1013.4 - 0.0
21/08:00pm 21.4 17.3 8.7 44 6.7 N 20 24 11 13 1013.2 - 0.0
21/07:30pm 20.3 17.3 9.2 49 5.9 NNE 15 19 8 10 1013.1 - 0.0
21/07:00pm 20.4 17.0 9.0 48 6.0 N 17 19 9 10 1012.9 - 0.0
21/06:30pm 21.8 18.8 9.3 45 6.7 N 15 17 8 9 1012.8 - 0.0
21/06:00pm 22.6 19.6 9.4 43 7.1 N 15 17 8 9 1012.6 1012.6 0.0
21/05:30pm 25.3 22.0 7.9 33 9.3 NNW 15 19 8 10 1012.6 - 0.0
21/05:00pm 27.7 23.1 6.5 26 11.2 NNW 20 26 11 14 1012.5 - 0.0
21/04:30pm 28.5 21.9 6.0 24 11.8 NW 30 39 16 21 1012.4 - 0.0
21/04:00pm 29.9 23.6 5.9 22 12.7 NW 28 41 15 22 1012.6 - 0.0
21/03:30pm 30.0 23.9 6.6 23 12.5 NNW 28 39 15 21 1012.7 - 0.0
21/03:00pm 30.1 23.6 6.7 23 12.5 NW 30 41 16 22 1012.8 1012.8 0.0
21/02:30pm 29.5 22.5 6.8 24 12.1 NW 33 44 18 24 1012.9 - 0.0
21/02:00pm 29.8 23.4 7.1 24 12.2 NNW 30 39 16 21 1013.1 - 0.0
21/01:30pm 29.5 22.5 8.5 27 11.6 NNW 35 43 19 23 1013.5 - 0.0
21/01:00pm 29.1 22.3 7.6 26 11.6 NNW 33 44 18 24 1013.9 - 0.0
21/12:50pm 29.3 23.6 8.4 27 11.5 N 28 46 15 25 1014.1 - 0.0
21/12:30pm 28.3 22.7 10.0 32 10.3 N 30 35 16 19 1014.5 - 0.0
21/12:00pm 27.5 21.9 10.2 34 9.7 N 30 39 16 21 1015.2 1015.2 0.0
21/11:30am 26.3 20.1 10.0 36 9.0 N 33 44 18 24 1015.8 - 0.0
21/11:00am 25.8 20.1 11.2 40 8.3 N 32 41 17 22 1016.2 - 0.0
21/10:30am 24.8 18.3 10.3 40 8.0 N 35 44 19 24 1016.3 - 0.0
21/10:00am 24.0 17.3 9.6 40 7.8 N 35 43 19 23 1016.6 - 0.0
21/09:30am 23.2 17.1 9.9 43 7.3 N 32 39 17 21 1016.9 - 0.0
21/09:00am 22.1 17.7 10.3 47 6.4 N 24 32 13 17 1016.9 1016.9 0.0
21/08:30am 20.4 18.3 11.1 55 5.1 N 13 19 7 10 1016.9 - 0.0
21/08:00am 16.7 15.1 10.3 66 3.4 WNW 9 13 5 7 1016.7 - 0.0
21/07:30am 15.7 13.1 10.7 72 2.7 WNW 15 19 8 10 1016.4 - 0.0
21/07:00am 14.0 12.4 10.2 78 2.0 WNW 9 11 5 6 1016.3 - 0.0
21/06:30am 14.1 12.8 10.1 77 2.1 NNW 7 9 4 5 1016.2 - 0.0
21/06:00am 14.5 13.4 10.1 75 2.3 NW 6 9 3 5 1015.9 1015.9 0.0
21/05:30am 15.2 13.2 10.0 71 2.7 NNW 11 11 6 6 1015.7 - 0.0
21/05:00am 13.7 12.2 10.7 82 1.6 W 9 11 5 6 1015.7 - 0.0
21/04:30am 13.7 11.9 11.0 84 1.4 W 11 13 6 7 1015.4 - 0.0
21/04:00am 13.8 12.1 11.1 84 1.4 W 11 15 6 8 1015.3 - 0.0
21/03:30am 14.1 12.4 11.3 83 1.5 WSW 11 13 6 7 1015.3 - 0.0
21/03:00am 14.0 12.0 11.5 85 1.3 WSW 13 15 7 8 1015.5 1015.5 0.0
21/02:30am 13.7 12.4 11.2 85 1.3 SSW 9 11 5 6 1015.6 - 0.0
21/02:00am 13.8 12.8 11.1 84 1.4 SSW 7 9 4 5 1015.8 - 0.0
21/01:30am 14.5 13.6 11.3 81 1.7 SSW 7 9 4 5 1016.0 - 0.0
21/01:00am 14.2 13.4 11.0 81 1.7 W 6 7 3 4 1016.1 - 0.0
21/12:30am 14.1 13.3 11.1 82 1.6 W 6 7 3 4 1016.1 - 0.0
21/12:00am 14.5 13.5 10.9 79 1.9 NW 7 7 4 4 1016.3 1016.3 0.0
 
Date/Time
CST
Temp
°C
App
Temp
°C
Dew
Point
Rel
Hum
%
Delta-T
°C
Wind Press
QNH
hPa
Press
MSL
hPa
Rain
since 9 am
mm
Dir
 
Spd
km/h
Gust
km/h
Spd
kts
Gust
kts
20/11:30pm 16.0 16.1 11.4 74 2.5 NE 2 7 1 4 1016.5 - 0.0
20/11:00pm 17.7 15.6 11.3 66 3.5 SE 13 15 7 8 1016.6 - 0.0
20/10:30pm 17.7 15.2 11.0 65 3.6 SE 15 20 8 11 1016.9 - 0.0
20/10:00pm 18.1 15.6 11.0 63 3.8 SE 15 19 8 10 1017.0 - 0.0
20/09:30pm 19.0 16.4 12.0 64 3.9 SE 17 20 9 11 1017.1 - 0.0
20/09:00pm 17.9 17.0 14.8 82 1.8 SE 13 17 7 9 1017.1 1017.1 0.0
20/08:30pm 17.5 15.7 13.4 77 2.3 ESE 15 17 8 9 1017.2 - 0.0
20/08:00pm 17.9 15.6 11.7 67 3.4 ESE 15 17 8 9 1017.1 - 0.0
20/07:30pm 19.3 16.8 11.1 59 4.5 SE 15 20 8 11 1017.1 - 0.0
20/07:00pm 18.7 17.2 13.1 70 3.2 SE 13 15 7 8 1016.9 - 0.0
20/06:30pm 19.4 17.8 12.9 66 3.7 SE 13 19 7 10 1016.8 - 0.0
20/06:00pm 20.3 19.1 12.8 62 4.2 ESE 11 15 6 8 1016.7 1016.7 0.0
20/05:30pm 22.2 21.3 12.5 54 5.5 SE 9 13 5 7 1016.4 - 0.0
20/05:00pm 23.2 21.6 11.6 48 6.5 SE 11 15 6 8 1016.4 - 0.0
20/04:30pm 24.2 22.2 10.1 41 7.8 SE 11 15 6 8 1016.3 - 0.0

Other Formats:

Comma delimited format used in spreadsheet applications
http://www.bom.gov.au/fwo/IDS60801/IDS60801.95666.axf

JavaScript Object Notation format (JSON) in row-major order
http://www.bom.gov.au/fwo/IDS60801/IDS60801.95666.json